sensor_id;sensor_type;location;lat;lon;timestamp;pressure;altitude;pressure_sealevel;temperature;humidity
18137;BME280;9194;42.632;23.298;2023-12-29T00:01:35;93236.53;;;2.24;100.00
18137;BME280;9194;42.632;23.298;2023-12-29T00:06:40;93239.09;;;2.24;100.00
18137;BME280;9194;42.632;23.298;2023-12-29T00:11:41;93230.91;;;2.20;100.00
18137;BME280;9194;42.632;23.298;2023-12-29T00:16:43;93219.81;;;2.20;100.00
18137;BME280;9194;42.632;23.298;2023-12-29T00:21:47;93227.69;;;2.18;100.00
18137;BME280;9194;42.632;23.298;2023-12-29T00:26:48;93233.94;;;2.24;100.00
18137;BME280;9194;42.632;23.298;2023-12-29T00:31:49;93229.75;;;2.15;100.00
18137;BME280;9194;42.632;23.298;2023-12-29T00:36:50;93233.75;;;2.09;100.00
18137;BME280;9194;42.632;23.298;2023-12-29T00:41:52;93230.50;;;1.99;100.00
18137;BME280;9194;42.632;23.298;2023-12-29T00:46:53;93234.34;;;1.95;100.00
18137;BME280;9194;42.632;23.298;2023-12-29T00:51:54;93222.25;;;1.87;100.00
18137;BME280;9194;42.632;23.298;2023-12-29T00:56:55;93224.38;;;1.92;100.00
18137;BME280;9194;42.632;23.298;2023-12-29T01:01:56;93221.63;;;1.85;100.00
18137;BME280;9194;42.632;23.298;2023-12-29T01:06:58;93231.56;;;1.88;100.00
18137;BME280;9194;42.632;23.298;2023-12-29T01:11:59;93215.53;;;1.86;100.00
18137;BME280;9194;42.632;23.298;2023-12-29T01:17:00;93195.31;;;1.83;100.00
18137;BME280;9194;42.632;23.298;2023-12-29T01:22:01;93209.91;;;1.83;100.00
18137;BME280;9194;42.632;23.298;2023-12-29T01:27:02;93218.41;;;1.83;100.00
18137;BME280;9194;42.632;23.298;2023-12-29T01:32:06;93221.91;;;1.82;100.00
18137;BME280;9194;42.632;23.298;2023-12-29T01:37:09;93225.00;;;1.86;100.00
18137;BME280;9194;42.632;23.298;2023-12-29T01:42:10;93219.69;;;1.87;100.00
18137;BME280;9194;42.632;23.298;2023-12-29T01:47:14;93223.25;;;1.94;100.00
18137;BME280;9194;42.632;23.298;2023-12-29T01:52:19;93214.41;;;1.89;100.00
18137;BME280;9194;42.632;23.298;2023-12-29T01:57:21;93203.47;;;1.87;100.00
18137;BME280;9194;42.632;23.298;2023-12-29T02:02:23;93201.28;;;1.92;100.00
18137;BME280;9194;42.632;23.298;2023-12-29T02:07:24;93199.06;;;1.97;100.00
18137;BME280;9194;42.632;23.298;2023-12-29T02:12:26;93184.41;;;1.89;100.00
18137;BME280;9194;42.632;23.298;2023-12-29T02:17:31;93186.13;;;1.81;100.00
18137;BME280;9194;42.632;23.298;2023-12-29T02:22:37;93171.22;;;1.76;100.00
18137;BME280;9194;42.632;23.298;2023-12-29T02:27:59;93176.03;;;1.79;100.00
18137;BME280;9194;42.632;23.298;2023-12-29T02:33:05;93176.03;;;1.79;100.00
18137;BME280;9194;42.632;23.298;2023-12-29T02:38:09;93178.28;;;1.82;100.00
18137;BME280;9194;42.632;23.298;2023-12-29T02:43:11;93160.66;;;1.79;100.00
18137;BME280;9194;42.632;23.298;2023-12-29T02:48:13;93142.34;;;1.74;100.00
18137;BME280;9194;42.632;23.298;2023-12-29T02:53:14;93140.88;;;1.72;100.00
18137;BME280;9194;42.632;23.298;2023-12-29T02:58:15;93137.22;;;1.74;100.00
18137;BME280;9194;42.632;23.298;2023-12-29T03:03:16;93134.81;;;1.73;100.00
18137;BME280;9194;42.632;23.298;2023-12-29T03:08:18;93117.59;;;1.65;100.00
18137;BME280;9194;42.632;23.298;2023-12-29T03:13:19;93109.28;;;1.63;100.00
18137;BME280;9194;42.632;23.298;2023-12-29T03:18:20;93117.31;;;1.68;100.00
18137;BME280;9194;42.632;23.298;2023-12-29T03:23:21;93118.59;;;1.72;100.00
18137;BME280;9194;42.632;23.298;2023-12-29T03:28:23;93122.78;;;1.81;100.00
18137;BME280;9194;42.632;23.298;2023-12-29T03:33:24;93111.84;;;1.63;100.00
18137;BME280;9194;42.632;23.298;2023-12-29T03:38:25;93106.50;;;1.48;100.00
18137;BME280;9194;42.632;23.298;2023-12-29T03:43:26;93109.19;;;1.47;100.00
18137;BME280;9194;42.632;23.298;2023-12-29T03:48:29;93110.00;;;1.47;100.00
18137;BME280;9194;42.632;23.298;2023-12-29T03:53:30;93109.66;;;1.42;100.00
18137;BME280;9194;42.632;23.298;2023-12-29T03:58:31;93121.84;;;1.40;100.00
18137;BME280;9194;42.632;23.298;2023-12-29T04:03:33;93135.63;;;1.39;100.00
18137;BME280;9194;42.632;23.298;2023-12-29T04:08:35;93112.38;;;1.33;100.00
18137;BME280;9194;42.632;23.298;2023-12-29T04:13:36;93114.94;;;1.33;100.00
18137;BME280;9194;42.632;23.298;2023-12-29T04:18:38;93120.34;;;1.21;100.00
18137;BME280;9194;42.632;23.298;2023-12-29T04:23:39;93133.75;;;1.15;100.00
18137;BME280;9194;42.632;23.298;2023-12-29T04:28:42;93122.97;;;1.04;100.00
18137;BME280;9194;42.632;23.298;2023-12-29T04:33:43;93122.50;;;1.08;100.00
18137;BME280;9194;42.632;23.298;2023-12-29T04:38:45;93126.97;;;1.06;100.00
18137;BME280;9194;42.632;23.298;2023-12-29T04:43:46;93132.06;;;0.98;100.00
18137;BME280;9194;42.632;23.298;2023-12-29T04:48:47;93130.38;;;0.89;100.00
18137;BME280;9194;42.632;23.298;2023-12-29T04:53:48;93129.91;;;0.86;100.00
18137;BME280;9194;42.632;23.298;2023-12-29T04:58:51;93133.56;;;0.83;100.00
18137;BME280;9194;42.632;23.298;2023-12-29T05:03:52;93119.44;;;0.79;100.00
18137;BME280;9194;42.632;23.298;2023-12-29T05:08:53;93125.56;;;0.86;100.00
18137;BME280;9194;42.632;23.298;2023-12-29T05:13:55;93114.66;;;0.84;100.00
18137;BME280;9194;42.632;23.298;2023-12-29T05:18:56;93103.94;;;0.80;100.00
18137;BME280;9194;42.632;23.298;2023-12-29T05:23:57;93103.16;;;0.88;100.00
18137;BME280;9194;42.632;23.298;2023-12-29T05:28:58;93100.44;;;0.90;100.00
18137;BME280;9194;42.632;23.298;2023-12-29T05:33:59;93098.88;;;0.97;100.00
18137;BME280;9194;42.632;23.298;2023-12-29T05:39:01;93115.69;;;0.99;100.00
18137;BME280;9194;42.632;23.298;2023-12-29T05:44:02;93117.31;;;1.00;100.00
18137;BME280;9194;42.632;23.298;2023-12-29T05:49:04;93115.69;;;0.99;100.00
18137;BME280;9194;42.632;23.298;2023-12-29T05:54:05;93122.44;;;1.00;100.00
18137;BME280;9194;42.632;23.298;2023-12-29T05:59:06;93117.03;;;1.03;100.00
18137;BME280;9194;42.632;23.298;2023-12-29T06:04:08;93096.06;;;1.08;100.00
18137;BME280;9194;42.632;23.298;2023-12-29T06:09:10;93098.63;;;1.08;100.00
18137;BME280;9194;42.632;23.298;2023-12-29T06:14:11;93089.03;;;1.10;100.00
18137;BME280;9194;42.632;23.298;2023-12-29T06:19:13;93100.22;;;1.09;100.00
18137;BME280;9194;42.632;23.298;2023-12-29T06:24:14;93092.56;;;1.17;100.00
18137;BME280;9194;42.632;23.298;2023-12-29T06:29:16;93103.22;;;1.30;100.00
18137;BME280;9194;42.632;23.298;2023-12-29T06:34:17;93110.00;;;1.39;100.00
18137;BME280;9194;42.632;23.298;2023-12-29T06:39:18;93116.94;;;1.55;100.00
18137;BME280;9194;42.632;23.298;2023-12-29T06:44:19;93109.31;;;1.79;100.00
18137;BME280;9194;42.632;23.298;2023-12-29T06:49:21;93095.84;;;1.93;100.00
18137;BME280;9194;42.632;23.298;2023-12-29T06:54:22;93104.56;;;2.09;100.00
18137;BME280;9194;42.632;23.298;2023-12-29T06:59:23;93116.13;;;2.13;100.00
18137;BME280;9194;42.632;23.298;2023-12-29T07:04:24;93109.53;;;2.10;100.00
18137;BME280;9194;42.632;23.298;2023-12-29T07:09:26;93107.44;;;2.22;100.00
18137;BME280;9194;42.632;23.298;2023-12-29T07:14:27;93102.34;;;2.46;100.00
18137;BME280;9194;42.632;23.298;2023-12-29T07:19:28;93098.97;;;2.62;100.00
18137;BME280;9194;42.632;23.298;2023-12-29T07:24:37;93096.84;;;2.81;100.00
18137;BME280;9194;42.632;23.298;2023-12-29T07:29:38;93082.78;;;3.16;100.00
18137;BME280;9194;42.632;23.298;2023-12-29T07:34:40;93086.03;;;3.57;100.00
18137;BME280;9194;42.632;23.298;2023-12-29T07:39:41;93079.00;;;3.82;100.00
18137;BME280;9194;42.632;23.298;2023-12-29T07:44:43;93090.03;;;3.91;100.00
18137;BME280;9194;42.632;23.298;2023-12-29T07:49:44;93083.41;;;3.96;100.00
18137;BME280;9194;42.632;23.298;2023-12-29T07:54:45;93087.88;;;4.02;100.00
18137;BME280;9194;42.632;23.298;2023-12-29T07:59:46;93089.22;;;4.21;100.00
18137;BME280;9194;42.632;23.298;2023-12-29T08:04:48;93099.72;;;4.42;100.00
18137;BME280;9194;42.632;23.298;2023-12-29T08:09:49;93106.91;;;4.47;100.00
18137;BME280;9194;42.632;23.298;2023-12-29T08:14:51;93086.41;;;4.53;100.00
18137;BME280;9194;42.632;23.298;2023-12-29T08:19:53;93094.69;;;4.64;100.00
18137;BME280;9194;42.632;23.298;2023-12-29T08:24:54;93092.03;;;4.94;100.00
18137;BME280;9194;42.632;23.298;2023-12-29T08:29:55;93081.72;;;5.09;100.00
18137;BME280;9194;42.632;23.298;2023-12-29T08:34:56;93082.44;;;5.32;100.00
18137;BME280;9194;42.632;23.298;2023-12-29T08:39:57;93090.09;;;5.11;100.00
18137;BME280;9194;42.632;23.298;2023-12-29T08:44:59;93100.84;;;5.00;100.00
18137;BME280;9194;42.632;23.298;2023-12-29T08:50:01;93106.69;;;4.94;100.00
18137;BME280;9194;42.632;23.298;2023-12-29T08:55:03;93106.50;;;4.95;100.00
18137;BME280;9194;42.632;23.298;2023-12-29T09:00:05;93098.25;;;5.00;100.00
18137;BME280;9194;42.632;23.298;2023-12-29T09:05:07;93095.16;;;5.19;100.00
18137;BME280;9194;42.632;23.298;2023-12-29T09:10:09;93109.13;;;5.40;100.00
18137;BME280;9194;42.632;23.298;2023-12-29T09:15:12;93117.75;;;5.32;100.00
18137;BME280;9194;42.632;23.298;2023-12-29T09:20:13;93108.69;;;5.36;100.00
18137;BME280;9194;42.632;23.298;2023-12-29T09:25:15;93081.19;;;5.43;100.00
18137;BME280;9194;42.632;23.298;2023-12-29T09:30:17;93080.94;;;5.53;100.00
18137;BME280;9194;42.632;23.298;2023-12-29T09:35:18;93076.63;;;5.60;100.00
18137;BME280;9194;42.632;23.298;2023-12-29T09:40:21;93075.81;;;5.59;100.00
18137;BME280;9194;42.632;23.298;2023-12-29T09:45:24;93076.53;;;5.68;100.00
18137;BME280;9194;42.632;23.298;2023-12-29T09:50:26;93062.53;;;5.77;100.00
18137;BME280;9194;42.632;23.298;2023-12-29T09:55:28;93057.78;;;5.95;100.00
18137;BME280;9194;42.632;23.298;2023-12-29T10:00:30;93057.84;;;6.38;100.00
18137;BME280;9194;42.632;23.298;2023-12-29T10:05:32;93049.22;;;6.52;100.00
18137;BME280;9194;42.632;23.298;2023-12-29T10:10:33;93037.84;;;6.74;100.00
18137;BME280;9194;42.632;23.298;2023-12-29T10:15:53;93045.00;;;7.00;100.00
18137;BME280;9194;42.632;23.298;2023-12-29T10:26:10;93027.38;;;7.17;100.00
18137;BME280;9194;42.632;23.298;2023-12-29T10:31:14;93012.72;;;7.30;100.00
18137;BME280;9194;42.632;23.298;2023-12-29T10:36:16;92999.34;;;7.68;100.00
18137;BME280;9194;42.632;23.298;2023-12-29T10:41:18;92992.63;;;7.80;100.00
18137;BME280;9194;42.632;23.298;2023-12-29T10:46:20;92998.16;;;7.77;100.00
18137;BME280;9194;42.632;23.298;2023-12-29T10:51:26;92978.84;;;7.73;100.00
18137;BME280;9194;42.632;23.298;2023-12-29T10:56:29;92973.69;;;7.93;100.00
18137;BME280;9194;42.632;23.298;2023-12-29T11:01:34;92960.56;;;8.14;100.00
18137;BME280;9194;42.632;23.298;2023-12-29T11:06:43;92949.44;;;8.33;100.00
18137;BME280;9194;42.632;23.298;2023-12-29T11:11:47;92936.28;;;8.48;97.80
18137;BME280;9194;42.632;23.298;2023-12-29T11:16:51;92948.88;;;8.44;98.32
18137;BME280;9194;42.632;23.298;2023-12-29T11:21:55;92942.19;;;9.07;94.27
18137;BME280;9194;42.632;23.298;2023-12-29T11:26:56;92941.31;;;9.20;91.46
18137;BME280;9194;42.632;23.298;2023-12-29T11:31:59;92937.53;;;9.23;91.05
18137;BME280;9194;42.632;23.298;2023-12-29T11:42:31;92941.56;;;9.12;91.04
18137;BME280;9194;42.632;23.298;2023-12-29T11:47:35;92931.22;;;8.86;92.76
18137;BME280;9194;42.632;23.298;2023-12-29T11:52:38;92927.06;;;8.72;94.89
18137;BME280;9194;42.632;23.298;2023-12-29T11:57:40;92924.91;;;8.49;95.98
18137;BME280;9194;42.632;23.298;2023-12-29T12:02:42;92925.47;;;8.11;99.27
18137;BME280;9194;42.632;23.298;2023-12-29T12:12:49;92922.41;;;7.62;100.00
18137;BME280;9194;42.632;23.298;2023-12-29T12:17:52;92916.75;;;7.38;100.00
18137;BME280;9194;42.632;23.298;2023-12-29T12:23:23;92929.00;;;7.17;100.00
18137;BME280;9194;42.632;23.298;2023-12-29T12:28:25;92931.78;;;6.74;100.00
18137;BME280;9194;42.632;23.298;2023-12-29T12:33:26;92946.53;;;6.46;100.00
18137;BME280;9194;42.632;23.298;2023-12-29T12:38:29;92938.38;;;6.21;100.00
18137;BME280;9194;42.632;23.298;2023-12-29T12:43:34;92944.28;;;6.15;100.00
18137;BME280;9194;42.632;23.298;2023-12-29T12:48:42;92946.19;;;6.06;100.00
18137;BME280;9194;42.632;23.298;2023-12-29T12:53:44;92941.41;;;6.03;100.00
18137;BME280;9194;42.632;23.298;2023-12-29T12:58:46;92944.69;;;5.91;100.00
18137;BME280;9194;42.632;23.298;2023-12-29T13:03:47;92942.38;;;5.81;100.00
18137;BME280;9194;42.632;23.298;2023-12-29T13:08:50;92944.72;;;5.76;100.00
18137;BME280;9194;42.632;23.298;2023-12-29T13:13:53;92942.25;;;5.68;100.00
18137;BME280;9194;42.632;23.298;2023-12-29T13:19:24;92940.16;;;5.57;100.00
18137;BME280;9194;42.632;23.298;2023-12-29T13:24:26;92944.09;;;5.53;100.00
18137;BME280;9194;42.632;23.298;2023-12-29T13:29:27;92934.09;;;5.50;100.00
18137;BME280;9194;42.632;23.298;2023-12-29T13:39:42;92943.31;;;5.37;100.00
18137;BME280;9194;42.632;23.298;2023-12-29T13:44:46;92931.34;;;5.15;100.00
18137;BME280;9194;42.632;23.298;2023-12-29T13:49:48;92933.75;;;5.02;100.00
18137;BME280;9194;42.632;23.298;2023-12-29T13:54:51;92941.63;;;4.94;100.00
18137;BME280;9194;42.632;23.298;2023-12-29T13:59:53;92950.41;;;4.85;100.00
18137;BME280;9194;42.632;23.298;2023-12-29T14:10:18;92950.16;;;4.80;100.00
18137;BME280;9194;42.632;23.298;2023-12-29T14:15:19;92960.47;;;4.80;100.00
18137;BME280;9194;42.632;23.298;2023-12-29T14:20:33;92952.38;;;4.83;100.00
18137;BME280;9194;42.632;23.298;2023-12-29T14:25:37;92952.09;;;4.78;100.00
18137;BME280;9194;42.632;23.298;2023-12-29T14:30:38;92948.56;;;4.64;100.00
18137;BME280;9194;42.632;23.298;2023-12-29T14:35:40;92957.78;;;4.59;100.00
18137;BME280;9194;42.632;23.298;2023-12-29T14:40:41;92955.75;;;4.54;100.00
18137;BME280;9194;42.632;23.298;2023-12-29T14:45:42;92953.06;;;4.47;100.00
18137;BME280;9194;42.632;23.298;2023-12-29T14:50:44;92957.06;;;4.35;100.00
18137;BME280;9194;42.632;23.298;2023-12-29T14:55:46;92964.75;;;4.21;100.00
18137;BME280;9194;42.632;23.298;2023-12-29T15:00:47;92958.69;;;4.13;100.00
18137;BME280;9194;42.632;23.298;2023-12-29T15:05:49;92958.94;;;4.04;100.00
18137;BME280;9194;42.632;23.298;2023-12-29T15:10:51;92952.25;;;3.95;100.00
18137;BME280;9194;42.632;23.298;2023-12-29T15:15:52;92957.44;;;3.87;100.00
18137;BME280;9194;42.632;23.298;2023-12-29T15:20:53;92962.84;;;3.77;100.00
18137;BME280;9194;42.632;23.298;2023-12-29T15:25:55;92976.53;;;3.78;100.00
18137;BME280;9194;42.632;23.298;2023-12-29T15:30:56;92963.00;;;3.76;100.00
18137;BME280;9194;42.632;23.298;2023-12-29T15:35:57;92961.06;;;3.78;100.00
18137;BME280;9194;42.632;23.298;2023-12-29T15:40:59;92963.97;;;3.75;100.00
18137;BME280;9194;42.632;23.298;2023-12-29T15:46:00;92965.59;;;3.76;100.00
18137;BME280;9194;42.632;23.298;2023-12-29T15:51:02;92977.38;;;3.70;100.00
18137;BME280;9194;42.632;23.298;2023-12-29T15:56:03;92973.41;;;3.59;100.00
18137;BME280;9194;42.632;23.298;2023-12-29T16:01:06;92984.69;;;3.58;100.00
18137;BME280;9194;42.632;23.298;2023-12-29T16:06:07;92992.16;;;3.45;100.00
18137;BME280;9194;42.632;23.298;2023-12-29T16:11:08;92994.78;;;3.37;100.00
18137;BME280;9194;42.632;23.298;2023-12-29T16:16:09;92995.91;;;3.35;100.00
18137;BME280;9194;42.632;23.298;2023-12-29T16:21:11;93003.91;;;3.40;100.00
18137;BME280;9194;42.632;23.298;2023-12-29T16:26:13;92997.69;;;3.34;100.00
18137;BME280;9194;42.632;23.298;2023-12-29T16:31:14;92998.69;;;3.25;100.00
18137;BME280;9194;42.632;23.298;2023-12-29T16:36:15;93005.59;;;3.24;100.00
18137;BME280;9194;42.632;23.298;2023-12-29T16:41:20;93005.13;;;3.21;100.00
18137;BME280;9194;42.632;23.298;2023-12-29T16:46:22;93007.69;;;3.21;100.00
18137;BME280;9194;42.632;23.298;2023-12-29T16:51:23;93011.88;;;3.22;100.00
18137;BME280;9194;42.632;23.298;2023-12-29T16:56:24;93011.72;;;3.23;100.00
18137;BME280;9194;42.632;23.298;2023-12-29T17:01:25;93003.34;;;3.21;100.00
18137;BME280;9194;42.632;23.298;2023-12-29T17:06:27;93011.06;;;3.21;100.00
18137;BME280;9194;42.632;23.298;2023-12-29T17:11:29;93003.34;;;3.29;100.00
18137;BME280;9194;42.632;23.298;2023-12-29T17:16:30;93008.03;;;3.26;100.00
18137;BME280;9194;42.632;23.298;2023-12-29T17:21:31;93009.31;;;3.22;100.00
18137;BME280;9194;42.632;23.298;2023-12-29T17:26:32;93014.31;;;3.15;100.00
18137;BME280;9194;42.632;23.298;2023-12-29T17:31:34;93020.31;;;3.08;100.00
18137;BME280;9194;42.632;23.298;2023-12-29T17:36:35;93016.28;;;3.05;100.00
18137;BME280;9194;42.632;23.298;2023-12-29T17:41:36;93015.03;;;3.01;100.00
18137;BME280;9194;42.632;23.298;2023-12-29T17:46:37;93013.47;;;3.31;100.00
18137;BME280;9194;42.632;23.298;2023-12-29T17:51:39;93010.91;;;4.45;100.00
18137;BME280;9194;42.632;23.298;2023-12-29T17:56:40;93009.13;;;5.12;100.00
18137;BME280;9194;42.632;23.298;2023-12-29T18:01:48;93016.41;;;4.94;100.00
18137;BME280;9194;42.632;23.298;2023-12-29T18:06:50;93012.97;;;4.49;100.00
18137;BME280;9194;42.632;23.298;2023-12-29T18:11:51;93024.25;;;4.11;100.00
18137;BME280;9194;42.632;23.298;2023-12-29T18:16:52;93022.34;;;4.05;100.00
18137;BME280;9194;42.632;23.298;2023-12-29T18:21:53;93005.63;;;4.76;100.00
18137;BME280;9194;42.632;23.298;2023-12-29T18:26:55;93004.03;;;5.04;100.00
18137;BME280;9194;42.632;23.298;2023-12-29T18:31:56;93007.16;;;5.14;100.00
18137;BME280;9194;42.632;23.298;2023-12-29T18:36:57;92996.53;;;5.53;100.00
18137;BME280;9194;42.632;23.298;2023-12-29T18:41:58;92997.34;;;5.75;100.00
18137;BME280;9194;42.632;23.298;2023-12-29T18:47:00;93004.63;;;5.86;100.00
18137;BME280;9194;42.632;23.298;2023-12-29T18:52:05;93014.25;;;5.77;100.00
18137;BME280;9194;42.632;23.298;2023-12-29T18:57:06;93010.03;;;5.70;100.00
18137;BME280;9194;42.632;23.298;2023-12-29T19:02:07;93012.03;;;5.74;100.00
18137;BME280;9194;42.632;23.298;2023-12-29T19:07:13;93012.16;;;5.66;100.00
18137;BME280;9194;42.632;23.298;2023-12-29T19:12:18;93018.00;;;5.75;100.00
18137;BME280;9194;42.632;23.298;2023-12-29T19:17:21;93013.06;;;5.59;100.00
18137;BME280;9194;42.632;23.298;2023-12-29T19:22:25;93012.78;;;5.54;100.00
18137;BME280;9194;42.632;23.298;2023-12-29T19:27:26;93019.47;;;5.48;100.00
18137;BME280;9194;42.632;23.298;2023-12-29T19:32:28;93015.06;;;5.27;100.00
18137;BME280;9194;42.632;23.298;2023-12-29T19:37:29;93009.19;;;5.33;100.00
18137;BME280;9194;42.632;23.298;2023-12-29T19:42:31;93010.34;;;5.46;100.00
18137;BME280;9194;42.632;23.298;2023-12-29T19:47:32;93018.25;;;5.80;100.00
18137;BME280;9194;42.632;23.298;2023-12-29T19:52:33;93017.53;;;5.86;100.00
18137;BME280;9194;42.632;23.298;2023-12-29T19:57:35;93015.94;;;6.21;100.00
18137;BME280;9194;42.632;23.298;2023-12-29T20:02:36;93004.22;;;6.25;100.00
18137;BME280;9194;42.632;23.298;2023-12-29T20:07:37;93004.66;;;6.07;100.00
18137;BME280;9194;42.632;23.298;2023-12-29T20:12:39;93011.41;;;5.87;100.00
18137;BME280;9194;42.632;23.298;2023-12-29T20:17:40;93001.34;;;5.77;100.00
18137;BME280;9194;42.632;23.298;2023-12-29T20:22:41;93003.47;;;5.89;100.00
18137;BME280;9194;42.632;23.298;2023-12-29T20:27:42;93004.47;;;5.88;100.00
18137;BME280;9194;42.632;23.298;2023-12-29T20:32:44;93005.28;;;5.88;100.00
18137;BME280;9194;42.632;23.298;2023-12-29T20:37:45;93000.97;;;6.16;100.00
18137;BME280;9194;42.632;23.298;2023-12-29T20:42:47;93007.00;;;6.02;100.00
18137;BME280;9194;42.632;23.298;2023-12-29T20:47:49;93013.78;;;6.03;100.00
18137;BME280;9194;42.632;23.298;2023-12-29T20:52:50;93011.28;;;5.95;100.00
18137;BME280;9194;42.632;23.298;2023-12-29T20:57:51;93000.84;;;6.03;100.00
18137;BME280;9194;42.632;23.298;2023-12-29T21:02:52;93001.00;;;5.81;100.00
18137;BME280;9194;42.632;23.298;2023-12-29T21:07:54;93006.72;;;5.61;100.00
18137;BME280;9194;42.632;23.298;2023-12-29T21:12:55;93007.50;;;5.41;100.00
18137;BME280;9194;42.632;23.298;2023-12-29T21:17:56;93003.84;;;5.20;100.00
18137;BME280;9194;42.632;23.298;2023-12-29T21:22:57;93005.19;;;5.02;100.00
18137;BME280;9194;42.632;23.298;2023-12-29T21:27:59;93005.28;;;5.23;100.00
18137;BME280;9194;42.632;23.298;2023-12-29T21:33:01;92997.97;;;5.41;100.00
18137;BME280;9194;42.632;23.298;2023-12-29T21:38:03;92996.19;;;5.42;100.00
18137;BME280;9194;42.632;23.298;2023-12-29T21:43:04;92994.84;;;5.46;100.00
18137;BME280;9194;42.632;23.298;2023-12-29T21:48:06;92984.66;;;5.59;100.00
18137;BME280;9194;42.632;23.298;2023-12-29T21:53:07;92979.28;;;5.75;100.00
18137;BME280;9194;42.632;23.298;2023-12-29T21:58:08;92976.56;;;5.83;100.00
18137;BME280;9194;42.632;23.298;2023-12-29T22:03:09;92963.63;;;5.83;100.00
18137;BME280;9194;42.632;23.298;2023-12-29T22:08:12;92964.25;;;5.85;100.00
18137;BME280;9194;42.632;23.298;2023-12-29T22:13:13;92954.31;;;5.82;100.00
18137;BME280;9194;42.632;23.298;2023-12-29T22:18:14;92951.41;;;5.70;100.00
18137;BME280;9194;42.632;23.298;2023-12-29T22:23:16;92943.59;;;5.28;100.00
18137;BME280;9194;42.632;23.298;2023-12-29T22:28:17;92945.63;;;4.82;100.00
18137;BME280;9194;42.632;23.298;2023-12-29T22:33:19;92940.41;;;4.38;100.00
18137;BME280;9194;42.632;23.298;2023-12-29T22:38:20;92944.00;;;3.99;100.00
18137;BME280;9194;42.632;23.298;2023-12-29T22:43:22;92943.63;;;3.65;100.00
18137;BME280;9194;42.632;23.298;2023-12-29T22:48:23;92932.50;;;3.42;100.00
18137;BME280;9194;42.632;23.298;2023-12-29T22:53:27;92940.00;;;3.20;100.00
18137;BME280;9194;42.632;23.298;2023-12-29T22:58:28;92939.59;;;3.09;100.00
18137;BME280;9194;42.632;23.298;2023-12-29T23:03:30;92930.69;;;2.97;100.00
18137;BME280;9194;42.632;23.298;2023-12-29T23:08:31;92926.91;;;2.76;100.00
18137;BME280;9194;42.632;23.298;2023-12-29T23:13:32;92915.38;;;2.64;100.00
18137;BME280;9194;42.632;23.298;2023-12-29T23:18:33;92911.19;;;2.63;100.00
18137;BME280;9194;42.632;23.298;2023-12-29T23:23:35;92917.00;;;2.57;100.00
18137;BME280;9194;42.632;23.298;2023-12-29T23:28:36;92918.97;;;2.47;100.00
18137;BME280;9194;42.632;23.298;2023-12-29T23:33:37;92909.84;;;2.36;100.00
18137;BME280;9194;42.632;23.298;2023-12-29T23:38:38;92909.34;;;2.41;100.00
18137;BME280;9194;42.632;23.298;2023-12-29T23:43:40;92903.91;;;2.28;100.00
18137;BME280;9194;42.632;23.298;2023-12-29T23:48:42;92900.44;;;2.13;100.00
18137;BME280;9194;42.632;23.298;2023-12-29T23:53:44;92898.53;;;2.06;100.00
18137;BME280;9194;42.632;23.298;2023-12-29T23:58:45;92909.78;;;1.97;100.00
